createdAt,value
2017-11-22T00:00:15.686Z,97133.21
2017-11-22T00:02:43.223Z,97134.81
2017-11-22T00:05:10.749Z,97139.16
2017-11-22T00:07:38.264Z,97132.80
2017-11-22T00:10:06.070Z,97128.46
2017-11-22T00:12:34.452Z,97125.58
2017-11-22T00:15:01.961Z,97131.34
2017-11-22T00:17:29.518Z,97128.45
2017-11-22T00:19:57.030Z,97122.88
2017-11-22T00:22:24.539Z,97121.14
2017-11-22T00:24:52.247Z,97122.11
2017-11-22T00:27:19.805Z,97122.31
2017-11-22T00:29:47.363Z,97126.45
2017-11-22T00:32:14.910Z,97125.10
2017-11-22T00:34:42.481Z,97119.16
2017-11-22T00:37:09.992Z,97119.39
2017-11-22T00:39:37.532Z,97115.12
2017-11-22T00:42:05.047Z,97111.35
2017-11-22T00:44:32.615Z,97108.89
2017-11-22T00:47:00.174Z,97108.89
2017-11-22T00:49:27.735Z,97101.19
2017-11-22T00:51:55.309Z,97105.41
2017-11-22T00:54:23.031Z,97104.44
2017-11-22T00:56:50.621Z,97103.73
2017-11-22T00:59:18.175Z,97105.00
2017-11-22T01:01:45.914Z,97111.07
2017-11-22T01:04:13.423Z,97109.94
2017-11-22T01:06:40.938Z,97105.37
2017-11-22T01:09:08.615Z,97108.39
2017-11-22T01:11:36.196Z,97113.71
2017-11-22T01:14:03.708Z,97110.73
2017-11-22T01:16:31.471Z,97115.38
2017-11-22T01:18:59.157Z,97113.30
2017-11-22T01:21:26.668Z,97113.78
2017-11-22T01:23:54.481Z,97112.48
2017-11-22T01:26:21.996Z,97100.60
2017-11-22T01:28:49.513Z,97104.79
2017-11-22T01:31:17.260Z,97115.33
2017-11-22T01:33:44.768Z,97119.16
2017-11-22T01:36:12.301Z,97118.83
2017-11-22T01:38:40.119Z,97117.16
2017-11-22T01:41:07.633Z,97116.59
2017-11-22T01:43:35.164Z,97119.89
2017-11-22T01:46:02.824Z,97126.25
2017-11-22T01:48:30.380Z,97121.08
2017-11-22T01:50:59.507Z,97122.12
2017-11-22T01:53:27.256Z,97120.44
2017-11-22T01:55:54.799Z,97122.88
2017-11-22T01:58:22.311Z,97121.08
2017-11-22T02:00:53.807Z,97121.42
2017-11-22T02:03:21.366Z,97112.17
2017-11-22T02:05:48.875Z,97118.41
2017-11-22T02:08:16.568Z,97108.75
2017-11-22T02:10:44.079Z,97109.85
2017-11-22T02:13:11.587Z,97101.88
2017-11-22T02:15:39.182Z,97095.88
2017-11-22T02:18:06.726Z,97098.06
2017-11-22T02:20:34.303Z,97101.34
2017-11-22T02:23:02.554Z,97101.74
2017-11-22T02:25:30.068Z,97097.53
2017-11-22T02:27:57.579Z,97099.16
2017-11-22T02:30:25.131Z,97096.13
2017-11-22T02:32:52.996Z,97091.25
2017-11-22T02:35:20.508Z,97084.72
2017-11-22T02:37:48.042Z,97095.80
2017-11-22T02:40:15.567Z,97081.34
2017-11-22T02:42:43.100Z,97088.81
2017-11-22T02:45:10.656Z,97089.91
2017-11-22T02:47:38.163Z,97079.57
2017-11-22T02:50:05.708Z,97082.45
2017-11-22T02:52:33.448Z,97076.94
2017-11-22T02:55:00.961Z,97069.07
2017-11-22T02:57:28.491Z,97066.20
2017-11-22T02:59:56.247Z,97063.81
2017-11-22T03:02:23.760Z,97061.71
2017-11-22T03:04:51.279Z,97055.42
2017-11-22T03:07:19.208Z,97048.06
2017-11-22T03:09:46.716Z,97049.85
2017-11-22T03:12:14.231Z,97048.66
2017-11-22T03:14:42.055Z,97053.59
2017-11-22T03:17:09.558Z,97054.50
2017-11-22T03:19:37.071Z,97057.52
2017-11-22T03:22:04.791Z,97059.63
2017-11-22T03:24:32.300Z,97063.06
2017-11-22T03:26:59.828Z,97057.97
2017-11-22T03:29:27.647Z,97055.92
2017-11-22T03:31:55.163Z,97053.05
2017-11-22T03:34:22.677Z,97046.86
2017-11-22T03:36:50.249Z,97044.42
2017-11-22T03:39:17.763Z,97045.45
2017-11-22T03:41:45.284Z,97065.17
2017-11-22T03:44:13.028Z,97065.23
2017-11-22T03:46:40.608Z,97063.54
2017-11-22T03:49:08.146Z,97070.41
2017-11-22T03:51:41.410Z,97077.47
2017-11-22T03:54:08.912Z,97076.60
2017-11-22T03:56:36.561Z,97077.89
2017-11-22T03:59:04.426Z,97067.05
2017-11-22T04:01:46.647Z,97070.88
2017-11-22T04:04:16.925Z,97060.88
2017-11-22T04:06:44.434Z,97068.44
2017-11-22T04:09:11.976Z,97070.12
2017-11-22T04:11:39.711Z,97071.50
2017-11-22T04:14:07.224Z,97065.30
2017-11-22T04:16:34.730Z,97062.36
2017-11-22T04:19:08.039Z,97069.55
2017-11-22T04:21:35.700Z,97062.92
2017-11-22T04:24:03.213Z,97067.52
2017-11-22T04:26:30.755Z,97064.71
2017-11-22T04:28:58.281Z,97069.39
2017-11-22T04:31:25.797Z,97066.53
2017-11-22T04:33:53.346Z,97065.27
2017-11-22T04:36:20.858Z,97076.16
2017-11-22T04:38:48.437Z,97078.69
2017-11-22T04:41:15.979Z,97072.05
2017-11-22T04:43:43.526Z,97072.89
2017-11-22T04:46:11.047Z,97071.69
2017-11-22T04:48:38.631Z,97070.02
2017-11-22T04:51:06.206Z,97061.63
2017-11-22T04:53:33.728Z,97056.66
2017-11-22T04:56:01.604Z,97052.55
2017-11-22T04:58:29.115Z,97050.53
2017-11-22T05:00:56.646Z,97059.78
2017-11-22T05:03:24.305Z,97059.43
2017-11-22T05:05:52.595Z,97060.23
2017-11-22T05:08:20.112Z,97058.67
2017-11-22T05:10:47.774Z,97056.23
2017-11-22T05:13:15.288Z,97060.00
2017-11-22T05:15:42.805Z,97052.45
2017-11-22T05:18:10.563Z,97044.44
2017-11-22T05:20:38.071Z,97037.31
2017-11-22T05:23:05.598Z,97032.72
2017-11-22T05:25:33.342Z,97030.32
2017-11-22T05:28:00.852Z,97020.27
2017-11-22T05:30:28.362Z,97021.11
2017-11-22T05:32:56.260Z,97019.36
2017-11-22T05:35:23.804Z,97014.74
2017-11-22T05:37:51.312Z,97014.25
2017-11-22T05:40:18.855Z,97013.91
2017-11-22T05:42:46.378Z,97007.85
2017-11-22T05:45:13.891Z,97002.73
2017-11-22T05:47:41.702Z,97002.80
2017-11-22T05:50:09.273Z,96999.53
2017-11-22T05:52:36.820Z,97000.73
2017-11-22T05:55:04.360Z,97001.45
2017-11-22T05:57:31.882Z,96998.66
2017-11-22T05:59:59.392Z,97003.55
2017-11-22T06:02:27.337Z,97004.39
2017-11-22T06:04:54.851Z,97002.77
2017-11-22T06:07:22.363Z,97005.64
2017-11-22T06:09:51.064Z,97002.23
2017-11-22T06:12:18.622Z,97013.11
2017-11-22T06:14:46.137Z,97021.73
2017-11-22T06:17:14.050Z,97019.68
2017-11-22T06:19:41.628Z,97027.81
2017-11-22T06:22:09.172Z,97023.19
2017-11-22T06:24:36.932Z,97023.15
2017-11-22T06:27:04.453Z,97017.69
2017-11-22T06:29:31.971Z,97027.33
2017-11-22T06:31:59.799Z,97022.84
2017-11-22T06:34:27.474Z,97021.17
2017-11-22T06:36:55.033Z,97025.80
2017-11-22T06:39:24.540Z,97020.33
2017-11-22T06:41:52.109Z,97019.43
2017-11-22T06:44:19.674Z,97013.08
2017-11-22T06:46:47.222Z,97018.47
2017-11-22T06:49:14.774Z,97009.85
2017-11-22T06:51:42.284Z,97012.89
2017-11-22T06:54:10.077Z,97013.47
2017-11-22T06:56:37.587Z,97001.34
2017-11-22T06:59:05.113Z,97000.07
2017-11-22T07:01:32.979Z,96993.86
2017-11-22T07:04:00.479Z,96995.05
2017-11-22T07:06:27.995Z,96993.88
2017-11-22T07:08:55.968Z,96987.70
2017-11-22T07:11:23.523Z,96995.19
2017-11-22T07:13:51.031Z,96999.38
2017-11-22T07:16:24.888Z,97000.18
2017-11-22T07:18:52.411Z,96994.19
2017-11-22T07:21:19.933Z,97002.02
2017-11-22T07:23:47.573Z,97003.98
2017-11-22T07:26:15.617Z,97005.56
2017-11-22T07:28:43.144Z,97009.56
2017-11-22T07:31:10.735Z,97002.28
2017-11-22T07:33:38.247Z,97000.78
2017-11-22T07:36:11.299Z,97009.02
2017-11-22T07:38:38.811Z,97006.27
2017-11-22T07:41:07.358Z,97002.01
2017-11-22T07:43:35.183Z,97003.53
2017-11-22T07:46:02.691Z,97004.98
2017-11-22T07:48:30.221Z,97006.93
2017-11-22T07:54:01.899Z,97002.23
2017-11-22T07:56:29.659Z,97001.66
2017-11-22T07:58:57.177Z,97003.20
2017-11-22T08:01:24.779Z,97006.95
2017-11-22T08:03:58.173Z,97004.00
2017-11-22T08:06:25.682Z,97003.08
2017-11-22T08:08:53.192Z,97006.78
2017-11-22T08:11:21.694Z,97000.67
2017-11-22T08:13:49.229Z,97003.95
2017-11-22T08:16:16.846Z,97005.05
2017-11-22T08:18:44.402Z,97000.12
2017-11-22T08:21:11.920Z,97002.41
2017-11-22T08:23:39.466Z,96998.94
2017-11-22T08:26:07.024Z,96999.50
2017-11-22T08:28:34.544Z,97001.04
2017-11-22T08:31:02.062Z,96998.81
2017-11-22T08:33:30.430Z,96999.45
2017-11-22T08:35:57.980Z,96995.31
2017-11-22T08:38:25.537Z,96991.73
2017-11-22T08:40:53.202Z,96995.72
2017-11-22T08:43:26.405Z,96996.84
2017-11-22T08:45:54.155Z,96999.59
2017-11-22T08:48:21.728Z,96999.83
2017-11-22T08:50:49.265Z,97004.59
2017-11-22T08:53:16.831Z,97004.44
2017-11-22T08:55:50.038Z,97006.27
2017-11-22T08:58:17.591Z,97005.30
2017-11-22T09:00:45.139Z,97010.30
2017-11-22T09:03:15.447Z,97013.95
2017-11-22T09:05:49.055Z,97010.88
2017-11-22T09:08:16.631Z,97008.90
2017-11-22T09:10:44.185Z,97005.19
2017-11-22T09:13:17.380Z,97001.07
2017-11-22T09:15:44.932Z,96998.55
2017-11-22T09:18:13.198Z,96999.03
2017-11-22T09:20:40.758Z,97000.59
2017-11-22T09:23:08.331Z,96999.63
2017-11-22T09:25:36.755Z,96993.52
2017-11-22T09:28:04.382Z,97003.97
2017-11-22T09:30:31.934Z,97002.89
2017-11-22T09:33:14.415Z,96997.37
2017-11-22T09:35:42.403Z,96998.76
2017-11-22T09:38:09.981Z,97003.23
2017-11-22T09:40:37.547Z,96998.95
2017-11-22T09:43:05.075Z,97005.48
2017-11-22T09:45:32.595Z,97003.39
2017-11-22T09:48:00.314Z,96996.11
2017-11-22T09:50:28.275Z,96999.80
2017-11-22T09:52:55.791Z,97000.26
2017-11-22T09:55:23.389Z,96995.20
2017-11-22T09:57:50.904Z,96995.91
2017-11-22T10:00:18.427Z,96994.34
2017-11-22T10:02:46.343Z,97003.22
2017-11-22T10:05:13.863Z,96999.77
2017-11-22T10:07:41.389Z,97005.52
2017-11-22T10:10:08.962Z,97001.50
2017-11-22T10:12:36.507Z,97000.58
2017-11-22T10:15:04.066Z,97000.37
2017-11-22T10:17:32.559Z,96987.39
2017-11-22T10:20:03.904Z,96996.48
2017-11-22T10:22:37.088Z,96990.11
2017-11-22T10:25:10.544Z,96987.59
2017-11-22T10:27:48.691Z,96992.77
2017-11-22T10:30:17.273Z,96987.27
2017-11-22T10:32:49.658Z,96977.38
2017-11-22T10:35:17.206Z,96984.03
2017-11-22T10:37:44.780Z,96980.50
2017-11-22T10:40:12.327Z,96976.92
2017-11-22T10:42:39.834Z,96977.28
2017-11-22T10:45:07.420Z,96973.13
2017-11-22T10:47:38.994Z,96979.81
2017-11-22T10:50:10.241Z,96978.50
2017-11-22T10:52:42.221Z,96979.85
2017-11-22T10:57:52.049Z,96972.97
2017-11-22T11:00:19.788Z,96969.19
2017-11-22T11:02:49.536Z,96966.34
2017-11-22T11:05:20.372Z,96969.55
2017-11-22T11:07:49.476Z,96969.41
2017-11-22T11:10:17.748Z,96967.67
2017-11-22T11:12:46.230Z,96974.94
2017-11-22T11:15:16.556Z,96973.91
2017-11-22T11:17:44.225Z,96978.24
2017-11-22T11:20:21.667Z,96971.26
2017-11-22T11:22:52.543Z,96966.38
2017-11-22T11:25:28.255Z,96959.28
2017-11-22T11:27:56.868Z,96963.45
2017-11-22T11:30:36.305Z,96963.16
2017-11-22T11:33:06.842Z,96961.23
2017-11-22T11:35:47.003Z,96960.80
2017-11-22T11:38:15.363Z,96958.67
2017-11-22T11:40:44.779Z,96954.36
2017-11-22T11:43:17.261Z,96958.93
2017-11-22T11:45:46.398Z,96956.65
2017-11-22T11:48:16.364Z,96951.59
2017-11-22T11:50:46.480Z,96947.05
2017-11-22T11:53:14.246Z,96951.99
2017-11-22T11:55:44.977Z,96950.55
2017-11-22T11:58:14.926Z,96949.63
2017-11-22T12:00:42.478Z,96948.98
2017-11-22T12:03:10.295Z,96946.33
2017-11-22T12:05:37.811Z,96950.22
2017-11-22T12:08:05.327Z,96945.44
2017-11-22T12:10:33.002Z,96941.05
2017-11-22T12:13:00.563Z,96941.83
2017-11-22T12:15:28.129Z,96938.74
2017-11-22T12:17:55.880Z,96930.03
2017-11-22T12:20:23.398Z,96930.88
2017-11-22T12:22:57.191Z,96918.88
2017-11-22T12:25:24.703Z,96919.30
2017-11-22T12:27:54.200Z,96924.47
2017-11-22T12:30:21.767Z,96918.62
2017-11-22T12:32:49.547Z,96918.47
2017-11-22T12:35:17.089Z,96915.03
2017-11-22T12:37:44.827Z,96916.61
2017-11-22T12:40:12.344Z,96917.25
2017-11-22T12:42:39.855Z,96917.39
2017-11-22T12:45:07.528Z,96919.13
2017-11-22T12:47:35.601Z,96917.02
2017-11-22T12:50:03.159Z,96909.80
2017-11-22T12:52:30.742Z,96914.98
2017-11-22T12:54:58.259Z,96911.41
2017-11-22T12:57:25.770Z,96914.22
2017-11-22T12:59:53.497Z,96911.83
2017-11-22T13:02:21.073Z,96903.34
2017-11-22T13:04:48.616Z,96906.37
2017-11-22T13:07:16.255Z,96905.31
2017-11-22T13:09:43.777Z,96903.66
2017-11-22T13:12:11.304Z,96898.70
2017-11-22T13:14:38.867Z,96902.33
2017-11-22T13:17:06.396Z,96901.36
2017-11-22T13:19:33.917Z,96902.36
2017-11-22T13:22:01.629Z,96893.41
2017-11-22T13:24:29.142Z,96887.68
2017-11-22T13:26:56.665Z,96889.38
2017-11-22T13:29:24.390Z,96888.49
2017-11-22T13:31:51.902Z,96890.79
2017-11-22T13:34:19.424Z,96894.72
2017-11-22T13:36:47.089Z,96894.09
2017-11-22T13:39:14.649Z,96890.55
2017-11-22T13:41:45.993Z,96883.51
2017-11-22T13:44:13.770Z,96879.55
2017-11-22T13:46:41.337Z,96879.41
2017-11-22T13:49:08.854Z,96876.08
2017-11-22T13:51:36.539Z,96880.30
2017-11-22T13:54:04.059Z,96879.78
2017-11-22T13:56:31.586Z,96874.75
2017-11-22T13:58:59.130Z,96871.15
2017-11-22T14:01:26.672Z,96878.53
2017-11-22T14:03:54.232Z,96875.13
2017-11-22T14:06:21.997Z,96879.31
2017-11-22T14:08:49.556Z,96869.52
2017-11-22T14:11:17.115Z,96867.84
2017-11-22T14:13:45.083Z,96867.74
2017-11-22T14:16:12.643Z,96871.03
2017-11-22T14:18:40.202Z,96870.09
2017-11-22T14:21:07.760Z,96869.42
2017-11-22T14:23:35.319Z,96862.48
2017-11-22T14:26:02.882Z,96863.81
2017-11-22T14:28:30.447Z,96862.34
2017-11-22T14:30:57.998Z,96866.08
2017-11-22T14:33:25.555Z,96860.30
2017-11-22T14:35:53.135Z,96860.46
2017-11-22T14:38:20.674Z,96859.79
2017-11-22T14:40:48.233Z,96855.28
2017-11-22T14:43:15.926Z,96859.88
2017-11-22T14:45:43.435Z,96861.72
2017-11-22T14:48:10.963Z,96859.34
2017-11-22T14:50:38.685Z,96857.91
2017-11-22T14:53:06.644Z,96860.64
2017-11-22T14:55:34.203Z,96857.19
2017-11-22T14:58:01.779Z,96859.02
2017-11-22T15:00:29.321Z,96856.66
2017-11-22T15:02:56.967Z,96857.20
2017-11-22T15:05:24.849Z,96857.95
2017-11-22T15:07:52.511Z,96855.75
2017-11-22T15:10:20.171Z,96853.20
2017-11-22T15:12:48.556Z,96848.55
2017-11-22T15:15:16.136Z,96844.53
2017-11-22T15:17:43.769Z,96851.23
2017-11-22T15:20:11.742Z,96843.96
2017-11-22T15:22:39.507Z,96847.20
2017-11-22T15:25:07.802Z,96842.59
2017-11-22T15:27:35.617Z,96843.77
2017-11-22T15:30:03.312Z,96843.84
2017-11-22T15:32:30.955Z,96851.60
2017-11-22T15:34:58.730Z,96851.75
2017-11-22T15:37:26.599Z,96854.30
2017-11-22T15:39:54.147Z,96850.55
2017-11-22T15:42:21.899Z,96848.72
2017-11-22T15:44:49.419Z,96851.77
2017-11-22T15:47:16.944Z,96848.88
2017-11-22T15:49:44.500Z,96841.67
2017-11-22T15:52:12.044Z,96835.46
2017-11-22T15:54:39.613Z,96842.31
2017-11-22T15:57:07.175Z,96841.50
2017-11-22T15:59:34.832Z,96841.48
2017-11-22T16:02:02.392Z,96839.07
2017-11-22T16:04:30.257Z,96839.72
2017-11-22T16:06:58.024Z,96842.00
2017-11-22T16:09:25.583Z,96836.47
2017-11-22T16:11:53.142Z,96831.17
2017-11-22T16:14:20.806Z,96830.59
2017-11-22T16:16:48.364Z,96835.28
2017-11-22T16:19:16.226Z,96835.99
2017-11-22T16:21:43.786Z,96832.44
2017-11-22T16:24:11.370Z,96826.78
2017-11-22T16:26:39.317Z,96827.14
2017-11-22T16:29:06.894Z,96829.36
2017-11-22T16:31:34.432Z,96828.25
2017-11-22T16:34:02.987Z,96830.06
2017-11-22T16:36:30.686Z,96820.11
2017-11-22T16:38:58.243Z,96821.71
2017-11-22T16:41:26.101Z,96819.84
2017-11-22T16:43:53.683Z,96816.55
2017-11-22T16:46:21.632Z,96811.78
2017-11-22T16:48:49.230Z,96810.62
2017-11-22T16:51:16.943Z,96809.91
2017-11-22T16:53:44.614Z,96804.31
2017-11-22T16:56:12.599Z,96812.78
2017-11-22T16:58:40.295Z,96813.52
2017-11-22T17:01:07.912Z,96805.45
2017-11-22T17:03:35.933Z,96802.08
2017-11-22T17:06:03.638Z,96806.73
2017-11-22T17:08:31.306Z,96799.89
2017-11-22T17:10:59.139Z,96798.45
2017-11-22T17:13:26.827Z,96801.52
2017-11-22T17:15:54.587Z,96795.19
2017-11-22T17:18:22.382Z,96797.96
2017-11-22T17:20:50.155Z,96805.10
2017-11-22T17:23:17.920Z,96807.43
2017-11-22T17:25:45.647Z,96806.19
2017-11-22T17:28:13.171Z,96805.84
2017-11-22T17:30:40.970Z,96808.16
2017-11-22T17:33:08.559Z,96807.33
2017-11-22T17:35:36.522Z,96805.52
2017-11-22T17:38:04.160Z,96804.80
2017-11-22T17:40:32.230Z,96799.50
2017-11-22T17:42:59.891Z,96801.41
2017-11-22T17:45:27.598Z,96797.70
2017-11-22T17:47:55.323Z,96800.92
2017-11-22T17:50:24.422Z,96802.41
2017-11-22T17:52:51.970Z,96799.57
2017-11-22T17:55:24.651Z,96792.19
2017-11-22T17:57:52.312Z,96788.14
2017-11-22T18:00:19.972Z,96791.31
2017-11-22T18:02:47.755Z,96782.88
2017-11-22T18:05:15.921Z,96781.73
2017-11-22T18:07:43.647Z,96780.10
2017-11-22T18:10:11.176Z,96779.90
2017-11-22T18:12:38.695Z,96774.45
2017-11-22T18:15:06.244Z,96779.58
2017-11-22T18:17:33.809Z,96782.19
2017-11-22T18:20:01.367Z,96778.91
2017-11-22T18:22:29.131Z,96775.05
2017-11-22T18:24:56.693Z,96781.23
2017-11-22T18:27:24.359Z,96775.61
2017-11-22T18:29:52.629Z,96781.18
2017-11-22T18:32:20.227Z,96779.45
2017-11-22T18:34:47.750Z,96777.91
2017-11-22T18:37:17.490Z,96772.83
2017-11-22T18:39:45.124Z,96775.14
2017-11-22T18:42:12.885Z,96777.14
2017-11-22T18:44:40.855Z,96774.91
2017-11-22T18:47:08.731Z,96773.44
2017-11-22T18:49:37.610Z,96765.00
2017-11-22T18:52:05.374Z,96768.70
2017-11-22T18:54:33.133Z,96775.75
2017-11-22T18:57:01.011Z,96767.03
2017-11-22T18:59:29.380Z,96762.39
2017-11-22T19:01:58.072Z,96766.23
2017-11-22T19:04:25.845Z,96766.63
2017-11-22T19:06:53.804Z,96758.52
2017-11-22T19:09:21.644Z,96757.62
2017-11-22T19:11:49.531Z,96759.49
2017-11-22T19:14:17.805Z,96753.61
2017-11-22T19:16:46.213Z,96755.09
2017-11-22T19:19:13.785Z,96750.36
2017-11-22T19:21:41.515Z,96747.19
2017-11-22T19:24:09.680Z,96747.86
2017-11-22T19:26:37.444Z,96742.64
2017-11-22T19:29:05.317Z,96746.16
2017-11-22T19:31:32.897Z,96740.78
2017-11-22T19:34:00.625Z,96738.11
2017-11-22T19:36:28.636Z,96739.84
2017-11-22T19:38:56.368Z,96739.52
2017-11-22T19:41:24.027Z,96745.28
2017-11-22T19:43:52.055Z,96739.58
2017-11-22T19:46:19.720Z,96743.90
2017-11-22T19:48:49.673Z,96742.95
2017-11-22T19:51:17.869Z,96740.63
2017-11-22T19:53:46.126Z,96744.45
2017-11-22T19:56:14.762Z,96746.91
2017-11-22T19:58:42.895Z,96741.63
2017-11-22T20:01:10.748Z,96740.70
2017-11-22T20:03:38.511Z,96739.60
2017-11-22T20:06:07.354Z,96744.93
2017-11-22T20:08:41.569Z,96742.17
2017-11-22T20:11:09.236Z,96733.31
2017-11-22T20:13:37.041Z,96731.61
2017-11-22T20:16:05.723Z,96736.28
2017-11-22T20:18:33.671Z,96737.77
2017-11-22T20:21:01.357Z,96740.71
2017-11-22T20:23:29.223Z,96736.39
2017-11-22T20:25:57.494Z,96733.13
2017-11-22T20:28:25.267Z,96734.02
2017-11-22T20:30:53.046Z,96735.53
2017-11-22T20:33:21.100Z,96736.63
2017-11-22T20:35:48.966Z,96735.80
2017-11-22T20:38:16.550Z,96733.33
2017-11-22T20:40:44.704Z,96737.80
2017-11-22T20:43:12.984Z,96736.01
2017-11-22T20:45:40.532Z,96731.52
2017-11-22T20:48:08.604Z,96723.16
2017-11-22T20:50:36.192Z,96723.03
2017-11-22T20:53:03.945Z,96724.42
2017-11-22T20:55:32.631Z,96716.84
2017-11-22T20:58:00.378Z,96711.19
2017-11-22T21:00:28.244Z,96710.22
2017-11-22T21:02:56.109Z,96709.25
2017-11-22T21:05:24.384Z,96710.36
2017-11-22T21:07:52.674Z,96714.46
2017-11-22T21:10:20.659Z,96707.89
2017-11-22T21:12:48.495Z,96705.41
2017-11-22T21:15:16.261Z,96707.43
2017-11-22T21:17:44.537Z,96701.59
2017-11-22T21:20:12.402Z,96700.68
2017-11-22T21:22:40.269Z,96692.43
2017-11-22T21:25:08.451Z,96691.95
2017-11-22T21:27:36.081Z,96687.78
2017-11-22T21:30:03.876Z,96682.05
2017-11-22T21:32:32.154Z,96685.35
2017-11-22T21:34:59.905Z,96689.12
2017-11-22T21:37:27.679Z,96684.06
2017-11-22T21:39:56.062Z,96684.63
2017-11-22T21:42:23.812Z,96682.05
2017-11-22T21:44:51.475Z,96679.18
2017-11-22T21:47:19.316Z,96675.99
2017-11-22T21:49:46.823Z,96683.48
2017-11-22T21:52:14.398Z,96681.98
2017-11-22T21:54:42.530Z,96686.06
2017-11-22T21:57:10.147Z,96678.09
2017-11-22T21:59:37.687Z,96664.30
2017-11-22T22:02:05.521Z,96662.27
2017-11-22T22:04:33.089Z,96659.23
2017-11-22T22:07:00.633Z,96667.22
2017-11-22T22:09:28.193Z,96669.11
2017-11-22T22:11:55.698Z,96676.92
2017-11-22T22:14:23.208Z,96668.72
2017-11-22T22:16:50.751Z,96671.97
2017-11-22T22:19:18.451Z,96671.75
2017-11-22T22:21:45.966Z,96675.55
2017-11-22T22:24:13.791Z,96677.78
2017-11-22T22:26:41.308Z,96672.39
2017-11-22T22:29:08.828Z,96666.77
2017-11-22T22:31:36.382Z,96673.20
2017-11-22T22:34:03.892Z,96671.38
2017-11-22T22:36:31.450Z,96668.41
2017-11-22T22:38:59.018Z,96666.20
2017-11-22T22:41:26.529Z,96661.67
2017-11-22T22:43:54.046Z,96667.95
2017-11-22T22:46:21.590Z,96665.73
2017-11-22T22:48:49.137Z,96665.63
2017-11-22T22:51:16.697Z,96660.67
2017-11-22T22:53:44.440Z,96651.88
2017-11-22T22:56:11.948Z,96646.15
2017-11-22T22:58:39.454Z,96657.88
2017-11-22T23:01:07.036Z,96661.36
2017-11-22T23:03:34.595Z,96662.63
2017-11-22T23:06:03.282Z,96664.05
2017-11-22T23:08:31.603Z,96664.10
2017-11-22T23:11:00.327Z,96671.19
2017-11-22T23:13:29.337Z,96665.66
2017-11-22T23:15:57.402Z,96670.99
2017-11-22T23:18:25.786Z,96667.49
2017-11-22T23:20:53.353Z,96666.66
2017-11-22T23:23:21.740Z,96661.36
2017-11-22T23:25:49.282Z,96665.36
2017-11-22T23:28:16.949Z,96668.25
2017-11-22T23:30:45.157Z,96662.95
2017-11-22T23:33:12.752Z,96657.61
2017-11-22T23:35:43.864Z,96657.71
2017-11-22T23:38:11.431Z,96657.81
2017-11-22T23:40:38.935Z,96659.89
2017-11-22T23:43:07.700Z,96654.75
2017-11-22T23:45:35.215Z,96650.14
2017-11-22T23:48:02.742Z,96648.56
2017-11-22T23:50:30.711Z,96640.58
2017-11-22T23:52:58.479Z,96646.12
2017-11-22T23:55:26.034Z,96654.03
2017-11-22T23:57:53.797Z,96651.19
